sensor_id;sensor_type;location;lat;lon;timestamp;P1;durP1;ratioP1;P2;durP2;ratioP2
17079;SDS011;8655;57.106;-2.088;2022-10-31T00:01:35;3.30;;;1.40;;
17079;SDS011;8655;57.106;-2.088;2022-10-31T00:04:02;2.35;;;1.27;;
17079;SDS011;8655;57.106;-2.088;2022-10-31T00:06:28;3.37;;;1.50;;
17079;SDS011;8655;57.106;-2.088;2022-10-31T00:08:55;2.65;;;1.42;;
17079;SDS011;8655;57.106;-2.088;2022-10-31T00:11:22;2.80;;;1.43;;
17079;SDS011;8655;57.106;-2.088;2022-10-31T00:13:48;3.43;;;1.70;;
17079;SDS011;8655;57.106;-2.088;2022-10-31T00:16:18;1.80;;;1.30;;
17079;SDS011;8655;57.106;-2.088;2022-10-31T00:18:48;3.00;;;1.40;;
17079;SDS011;8655;57.106;-2.088;2022-10-31T00:21:17;3.10;;;1.43;;
17079;SDS011;8655;57.106;-2.088;2022-10-31T00:23:43;3.50;;;1.80;;
17079;SDS011;8655;57.106;-2.088;2022-10-31T00:26:09;2.47;;;1.40;;
17079;SDS011;8655;57.106;-2.088;2022-10-31T00:28:34;2.85;;;1.55;;
17079;SDS011;8655;57.106;-2.088;2022-10-31T00:31:00;2.75;;;1.30;;
17079;SDS011;8655;57.106;-2.088;2022-10-31T00:33:27;3.73;;;1.60;;
17079;SDS011;8655;57.106;-2.088;2022-10-31T00:35:53;3.13;;;1.15;;
17079;SDS011;8655;57.106;-2.088;2022-10-31T00:38:19;3.03;;;1.50;;
17079;SDS011;8655;57.106;-2.088;2022-10-31T00:40:45;2.47;;;1.50;;
17079;SDS011;8655;57.106;-2.088;2022-10-31T00:43:10;1.60;;;1.15;;
17079;SDS011;8655;57.106;-2.088;2022-10-31T00:45:36;3.03;;;1.50;;
17079;SDS011;8655;57.106;-2.088;2022-10-31T00:48:02;2.42;;;1.20;;
17079;SDS011;8655;57.106;-2.088;2022-10-31T00:50:27;2.75;;;1.30;;
17079;SDS011;8655;57.106;-2.088;2022-10-31T00:52:53;2.00;;;1.17;;
17079;SDS011;8655;57.106;-2.088;2022-10-31T00:55:19;2.00;;;1.13;;
17079;SDS011;8655;57.106;-2.088;2022-10-31T00:57:48;2.33;;;1.23;;
17079;SDS011;8655;57.106;-2.088;2022-10-31T01:00:14;2.08;;;1.10;;
17079;SDS011;8655;57.106;-2.088;2022-10-31T01:02:40;3.45;;;1.38;;
17079;SDS011;8655;57.106;-2.088;2022-10-31T01:05:06;2.57;;;1.00;;
17079;SDS011;8655;57.106;-2.088;2022-10-31T01:07:35;2.20;;;1.20;;
17079;SDS011;8655;57.106;-2.088;2022-10-31T01:10:01;2.10;;;1.20;;
17079;SDS011;8655;57.106;-2.088;2022-10-31T01:12:27;2.20;;;1.17;;
17079;SDS011;8655;57.106;-2.088;2022-10-31T01:14:52;2.87;;;1.53;;
17079;SDS011;8655;57.106;-2.088;2022-10-31T01:17:18;2.45;;;1.20;;
17079;SDS011;8655;57.106;-2.088;2022-10-31T01:19:44;2.83;;;1.57;;
17079;SDS011;8655;57.106;-2.088;2022-10-31T01:22:10;1.87;;;1.13;;
17079;SDS011;8655;57.106;-2.088;2022-10-31T01:24:36;2.75;;;1.23;;
17079;SDS011;8655;57.106;-2.088;2022-10-31T01:27:02;1.60;;;1.10;;
17079;SDS011;8655;57.106;-2.088;2022-10-31T01:29:27;2.90;;;1.23;;
17079;SDS011;8655;57.106;-2.088;2022-10-31T01:31:53;2.20;;;1.20;;
17079;SDS011;8655;57.106;-2.088;2022-10-31T01:34:19;3.83;;;1.50;;
17079;SDS011;8655;57.106;-2.088;2022-10-31T01:36:45;3.47;;;1.33;;
17079;SDS011;8655;57.106;-2.088;2022-10-31T01:39:15;1.60;;;1.13;;
17079;SDS011;8655;57.106;-2.088;2022-10-31T01:41:46;2.50;;;1.30;;
17079;SDS011;8655;57.106;-2.088;2022-10-31T01:46:40;2.25;;;1.17;;
17079;SDS011;8655;57.106;-2.088;2022-10-31T01:49:17;2.55;;;1.38;;
17079;SDS011;8655;57.106;-2.088;2022-10-31T01:51:51;3.05;;;1.42;;
17079;SDS011;8655;57.106;-2.088;2022-10-31T01:54:38;2.70;;;1.37;;
17079;SDS011;8655;57.106;-2.088;2022-10-31T01:57:07;3.42;;;1.30;;
17079;SDS011;8655;57.106;-2.088;2022-10-31T01:59:36;3.28;;;1.20;;
17079;SDS011;8655;57.106;-2.088;2022-10-31T02:02:05;2.60;;;1.20;;
17079;SDS011;8655;57.106;-2.088;2022-10-31T02:04:32;2.37;;;1.23;;
17079;SDS011;8655;57.106;-2.088;2022-10-31T02:07:00;2.33;;;1.10;;
17079;SDS011;8655;57.106;-2.088;2022-10-31T02:09:31;1.77;;;0.90;;
17079;SDS011;8655;57.106;-2.088;2022-10-31T02:11:59;1.80;;;1.00;;
17079;SDS011;8655;57.106;-2.088;2022-10-31T02:14:25;3.07;;;1.17;;
17079;SDS011;8655;57.106;-2.088;2022-10-31T02:16:54;2.43;;;1.33;;
17079;SDS011;8655;57.106;-2.088;2022-10-31T02:24:55;2.93;;;1.40;;
17079;SDS011;8655;57.106;-2.088;2022-10-31T02:30:23;2.53;;;1.20;;
17079;SDS011;8655;57.106;-2.088;2022-10-31T02:33:04;1.37;;;1.00;;
17079;SDS011;8655;57.106;-2.088;2022-10-31T02:38:30;2.23;;;1.17;;
17079;SDS011;8655;57.106;-2.088;2022-10-31T02:44:16;1.20;;;0.80;;
17079;SDS011;8655;57.106;-2.088;2022-10-31T02:46:59;1.90;;;0.83;;
17079;SDS011;8655;57.106;-2.088;2022-10-31T02:50:12;1.70;;;1.20;;
17079;SDS011;8655;57.106;-2.088;2022-10-31T02:52:35;1.27;;;1.13;;
17079;SDS011;8655;57.106;-2.088;2022-10-31T02:55:11;1.73;;;0.80;;
17079;SDS011;8655;57.106;-2.088;2022-10-31T02:58:01;1.50;;;0.80;;
17079;SDS011;8655;57.106;-2.088;2022-10-31T03:00:37;2.57;;;1.17;;
17079;SDS011;8655;57.106;-2.088;2022-10-31T03:03:30;1.37;;;0.87;;
17079;SDS011;8655;57.106;-2.088;2022-10-31T03:06:07;1.67;;;0.90;;
17079;SDS011;8655;57.106;-2.088;2022-10-31T03:08:55;2.33;;;1.37;;
17079;SDS011;8655;57.106;-2.088;2022-10-31T03:11:44;1.73;;;0.90;;
17079;SDS011;8655;57.106;-2.088;2022-10-31T03:14:23;2.10;;;1.10;;
17079;SDS011;8655;57.106;-2.088;2022-10-31T03:16:54;2.67;;;1.00;;
17079;SDS011;8655;57.106;-2.088;2022-10-31T03:19:33;2.33;;;1.10;;
17079;SDS011;8655;57.106;-2.088;2022-10-31T03:24:36;2.77;;;1.07;;
17079;SDS011;8655;57.106;-2.088;2022-10-31T03:27:04;1.67;;;1.10;;
17079;SDS011;8655;57.106;-2.088;2022-10-31T03:29:33;1.67;;;1.00;;
17079;SDS011;8655;57.106;-2.088;2022-10-31T03:32:09;1.13;;;0.90;;
17079;SDS011;8655;57.106;-2.088;2022-10-31T03:34:41;2.00;;;1.10;;
17079;SDS011;8655;57.106;-2.088;2022-10-31T03:37:09;2.20;;;1.20;;
17079;SDS011;8655;57.106;-2.088;2022-10-31T03:39:38;1.57;;;0.80;;
17079;SDS011;8655;57.106;-2.088;2022-10-31T03:42:10;1.58;;;1.00;;
17079;SDS011;8655;57.106;-2.088;2022-10-31T03:44:40;1.40;;;0.77;;
17079;SDS011;8655;57.106;-2.088;2022-10-31T03:47:10;1.47;;;0.90;;
17079;SDS011;8655;57.106;-2.088;2022-10-31T03:49:37;1.67;;;1.07;;
17079;SDS011;8655;57.106;-2.088;2022-10-31T03:52:10;2.38;;;1.08;;
17079;SDS011;8655;57.106;-2.088;2022-10-31T03:57:09;3.07;;;1.27;;
17079;SDS011;8655;57.106;-2.088;2022-10-31T03:59:45;2.93;;;1.20;;
17079;SDS011;8655;57.106;-2.088;2022-10-31T04:02:26;2.40;;;1.10;;
17079;SDS011;8655;57.106;-2.088;2022-10-31T04:04:55;2.17;;;1.00;;
17079;SDS011;8655;57.106;-2.088;2022-10-31T04:07:21;2.10;;;1.07;;
17079;SDS011;8655;57.106;-2.088;2022-10-31T04:09:53;2.37;;;1.10;;
17079;SDS011;8655;57.106;-2.088;2022-10-31T04:12:20;3.03;;;1.27;;
17079;SDS011;8655;57.106;-2.088;2022-10-31T04:14:49;2.70;;;1.20;;
17079;SDS011;8655;57.106;-2.088;2022-10-31T04:17:16;1.77;;;0.90;;
17079;SDS011;8655;57.106;-2.088;2022-10-31T04:19:45;1.60;;;1.10;;
17079;SDS011;8655;57.106;-2.088;2022-10-31T04:22:10;2.00;;;1.17;;
17079;SDS011;8655;57.106;-2.088;2022-10-31T04:24:37;1.35;;;0.90;;
17079;SDS011;8655;57.106;-2.088;2022-10-31T04:27:04;1.63;;;1.13;;
17079;SDS011;8655;57.106;-2.088;2022-10-31T04:29:30;1.77;;;0.93;;
17079;SDS011;8655;57.106;-2.088;2022-10-31T04:31:56;2.08;;;1.20;;
17079;SDS011;8655;57.106;-2.088;2022-10-31T04:34:21;2.43;;;1.13;;
17079;SDS011;8655;57.106;-2.088;2022-10-31T04:36:47;1.93;;;1.00;;
17079;SDS011;8655;57.106;-2.088;2022-10-31T04:39:13;2.37;;;1.10;;
17079;SDS011;8655;57.106;-2.088;2022-10-31T04:41:38;1.93;;;1.13;;
17079;SDS011;8655;57.106;-2.088;2022-10-31T04:44:04;1.52;;;0.90;;
17079;SDS011;8655;57.106;-2.088;2022-10-31T04:46:30;2.08;;;0.95;;
17079;SDS011;8655;57.106;-2.088;2022-10-31T04:48:56;0.97;;;0.83;;
17079;SDS011;8655;57.106;-2.088;2022-10-31T04:51:22;2.00;;;1.33;;
17079;SDS011;8655;57.106;-2.088;2022-10-31T04:53:48;3.20;;;1.30;;
17079;SDS011;8655;57.106;-2.088;2022-10-31T04:56:13;2.65;;;1.20;;
17079;SDS011;8655;57.106;-2.088;2022-10-31T04:58:39;2.37;;;1.53;;
17079;SDS011;8655;57.106;-2.088;2022-10-31T05:01:05;1.87;;;1.13;;
17079;SDS011;8655;57.106;-2.088;2022-10-31T05:03:30;1.83;;;1.03;;
17079;SDS011;8655;57.106;-2.088;2022-10-31T05:05:56;2.53;;;1.13;;
17079;SDS011;8655;57.106;-2.088;2022-10-31T05:08:22;4.30;;;1.13;;
17079;SDS011;8655;57.106;-2.088;2022-10-31T05:10:48;2.10;;;1.00;;
17079;SDS011;8655;57.106;-2.088;2022-10-31T05:13:13;2.27;;;1.00;;
17079;SDS011;8655;57.106;-2.088;2022-10-31T05:15:40;2.10;;;1.17;;
17079;SDS011;8655;57.106;-2.088;2022-10-31T05:18:06;2.93;;;1.20;;
17079;SDS011;8655;57.106;-2.088;2022-10-31T05:20:32;2.10;;;1.10;;
17079;SDS011;8655;57.106;-2.088;2022-10-31T05:22:58;2.57;;;1.03;;
17079;SDS011;8655;57.106;-2.088;2022-10-31T05:25:25;2.47;;;1.33;;
17079;SDS011;8655;57.106;-2.088;2022-10-31T05:27:52;3.10;;;1.10;;
17079;SDS011;8655;57.106;-2.088;2022-10-31T05:30:20;2.27;;;1.20;;
17079;SDS011;8655;57.106;-2.088;2022-10-31T05:32:49;2.27;;;1.10;;
17079;SDS011;8655;57.106;-2.088;2022-10-31T05:35:17;1.97;;;1.20;;
17079;SDS011;8655;57.106;-2.088;2022-10-31T05:37:46;2.33;;;1.40;;
17079;SDS011;8655;57.106;-2.088;2022-10-31T05:40:13;1.53;;;1.10;;
17079;SDS011;8655;57.106;-2.088;2022-10-31T05:42:40;1.80;;;1.20;;
17079;SDS011;8655;57.106;-2.088;2022-10-31T05:45:07;2.97;;;1.40;;
17079;SDS011;8655;57.106;-2.088;2022-10-31T05:47:34;3.03;;;1.40;;
17079;SDS011;8655;57.106;-2.088;2022-10-31T05:50:00;2.00;;;1.10;;
17079;SDS011;8655;57.106;-2.088;2022-10-31T05:52:26;3.07;;;1.53;;
17079;SDS011;8655;57.106;-2.088;2022-10-31T05:54:51;2.00;;;1.20;;
17079;SDS011;8655;57.106;-2.088;2022-10-31T05:57:17;2.90;;;1.20;;
17079;SDS011;8655;57.106;-2.088;2022-10-31T05:59:43;3.47;;;1.25;;
17079;SDS011;8655;57.106;-2.088;2022-10-31T06:02:08;4.37;;;1.30;;
17079;SDS011;8655;57.106;-2.088;2022-10-31T06:04:34;3.13;;;1.27;;
17079;SDS011;8655;57.106;-2.088;2022-10-31T06:07:00;3.47;;;1.40;;
17079;SDS011;8655;57.106;-2.088;2022-10-31T06:09:25;2.87;;;1.40;;
17079;SDS011;8655;57.106;-2.088;2022-10-31T06:11:51;3.43;;;1.20;;
17079;SDS011;8655;57.106;-2.088;2022-10-31T06:14:17;1.77;;;1.10;;
17079;SDS011;8655;57.106;-2.088;2022-10-31T06:16:42;2.23;;;1.27;;
17079;SDS011;8655;57.106;-2.088;2022-10-31T06:19:08;4.27;;;1.40;;
17079;SDS011;8655;57.106;-2.088;2022-10-31T06:21:34;3.63;;;1.50;;
17079;SDS011;8655;57.106;-2.088;2022-10-31T06:23:59;3.30;;;1.20;;
17079;SDS011;8655;57.106;-2.088;2022-10-31T06:26:25;4.37;;;1.40;;
17079;SDS011;8655;57.106;-2.088;2022-10-31T06:28:51;2.87;;;1.30;;
17079;SDS011;8655;57.106;-2.088;2022-10-31T06:31:16;2.97;;;1.30;;
17079;SDS011;8655;57.106;-2.088;2022-10-31T06:33:42;2.57;;;1.40;;
17079;SDS011;8655;57.106;-2.088;2022-10-31T06:36:08;2.77;;;1.30;;
17079;SDS011;8655;57.106;-2.088;2022-10-31T06:38:34;2.57;;;1.10;;
17079;SDS011;8655;57.106;-2.088;2022-10-31T06:41:03;5.43;;;1.70;;
17079;SDS011;8655;57.106;-2.088;2022-10-31T06:43:30;4.83;;;1.63;;
17079;SDS011;8655;57.106;-2.088;2022-10-31T06:45:56;3.63;;;1.60;;
17079;SDS011;8655;57.106;-2.088;2022-10-31T06:48:22;4.07;;;1.60;;
17079;SDS011;8655;57.106;-2.088;2022-10-31T06:50:48;4.17;;;1.53;;
17079;SDS011;8655;57.106;-2.088;2022-10-31T06:53:14;4.07;;;1.73;;
17079;SDS011;8655;57.106;-2.088;2022-10-31T06:55:40;4.50;;;2.00;;
17079;SDS011;8655;57.106;-2.088;2022-10-31T06:58:07;3.20;;;1.60;;
17079;SDS011;8655;57.106;-2.088;2022-10-31T07:00:34;4.60;;;1.57;;
17079;SDS011;8655;57.106;-2.088;2022-10-31T07:03:02;4.53;;;1.90;;
17079;SDS011;8655;57.106;-2.088;2022-10-31T07:05:29;5.07;;;1.87;;
17079;SDS011;8655;57.106;-2.088;2022-10-31T07:07:56;5.20;;;2.00;;
17079;SDS011;8655;57.106;-2.088;2022-10-31T07:10:24;5.53;;;1.73;;
17079;SDS011;8655;57.106;-2.088;2022-10-31T07:12:54;6.63;;;2.00;;
17079;SDS011;8655;57.106;-2.088;2022-10-31T07:15:24;5.90;;;1.97;;
17079;SDS011;8655;57.106;-2.088;2022-10-31T07:17:51;5.73;;;2.10;;
17079;SDS011;8655;57.106;-2.088;2022-10-31T07:20:17;6.22;;;2.17;;
17079;SDS011;8655;57.106;-2.088;2022-10-31T07:22:43;6.87;;;1.90;;
17079;SDS011;8655;57.106;-2.088;2022-10-31T07:25:09;5.23;;;1.90;;
17079;SDS011;8655;57.106;-2.088;2022-10-31T07:27:38;6.93;;;2.10;;
17079;SDS011;8655;57.106;-2.088;2022-10-31T07:30:05;6.00;;;1.93;;
17079;SDS011;8655;57.106;-2.088;2022-10-31T07:32:41;5.87;;;2.00;;
17079;SDS011;8655;57.106;-2.088;2022-10-31T07:35:13;3.83;;;1.73;;
17079;SDS011;8655;57.106;-2.088;2022-10-31T07:37:40;6.67;;;1.93;;
17079;SDS011;8655;57.106;-2.088;2022-10-31T07:40:06;6.83;;;2.10;;
17079;SDS011;8655;57.106;-2.088;2022-10-31T07:42:37;6.17;;;1.80;;
17079;SDS011;8655;57.106;-2.088;2022-10-31T07:45:04;4.40;;;1.90;;
17079;SDS011;8655;57.106;-2.088;2022-10-31T07:48:04;6.90;;;2.30;;
17079;SDS011;8655;57.106;-2.088;2022-10-31T07:50:26;8.27;;;2.17;;
17079;SDS011;8655;57.106;-2.088;2022-10-31T07:53:01;6.93;;;2.33;;
17079;SDS011;8655;57.106;-2.088;2022-10-31T07:55:29;8.33;;;2.17;;
17079;SDS011;8655;57.106;-2.088;2022-10-31T07:57:56;6.47;;;2.30;;
17079;SDS011;8655;57.106;-2.088;2022-10-31T08:00:23;5.77;;;2.10;;
17079;SDS011;8655;57.106;-2.088;2022-10-31T08:02:48;5.60;;;2.30;;
17079;SDS011;8655;57.106;-2.088;2022-10-31T08:05:27;6.57;;;2.03;;
17079;SDS011;8655;57.106;-2.088;2022-10-31T08:07:54;6.23;;;2.23;;
17079;SDS011;8655;57.106;-2.088;2022-10-31T08:10:20;7.07;;;2.03;;
17079;SDS011;8655;57.106;-2.088;2022-10-31T08:12:46;4.97;;;1.87;;
17079;SDS011;8655;57.106;-2.088;2022-10-31T08:15:12;6.47;;;2.07;;
17079;SDS011;8655;57.106;-2.088;2022-10-31T08:17:37;4.43;;;1.97;;
17079;SDS011;8655;57.106;-2.088;2022-10-31T08:20:04;7.03;;;2.13;;
17079;SDS011;8655;57.106;-2.088;2022-10-31T08:22:31;5.90;;;2.40;;
17079;SDS011;8655;57.106;-2.088;2022-10-31T08:24:57;5.27;;;2.00;;
17079;SDS011;8655;57.106;-2.088;2022-10-31T08:27:22;5.43;;;2.13;;
17079;SDS011;8655;57.106;-2.088;2022-10-31T08:29:48;8.13;;;1.93;;
17079;SDS011;8655;57.106;-2.088;2022-10-31T08:32:14;8.00;;;2.20;;
17079;SDS011;8655;57.106;-2.088;2022-10-31T08:34:39;7.43;;;2.37;;
17079;SDS011;8655;57.106;-2.088;2022-10-31T08:37:05;4.93;;;1.90;;
17079;SDS011;8655;57.106;-2.088;2022-10-31T08:39:30;7.93;;;2.17;;
17079;SDS011;8655;57.106;-2.088;2022-10-31T08:41:56;8.50;;;2.40;;
17079;SDS011;8655;57.106;-2.088;2022-10-31T08:44:22;6.90;;;2.20;;
17079;SDS011;8655;57.106;-2.088;2022-10-31T08:46:47;5.93;;;1.93;;
17079;SDS011;8655;57.106;-2.088;2022-10-31T08:49:13;7.07;;;2.20;;
17079;SDS011;8655;57.106;-2.088;2022-10-31T08:51:39;5.87;;;2.03;;
17079;SDS011;8655;57.106;-2.088;2022-10-31T08:54:04;5.30;;;2.00;;
17079;SDS011;8655;57.106;-2.088;2022-10-31T08:56:30;7.17;;;2.20;;
17079;SDS011;8655;57.106;-2.088;2022-10-31T08:58:56;8.00;;;2.10;;
17079;SDS011;8655;57.106;-2.088;2022-10-31T09:01:21;9.53;;;2.37;;
17079;SDS011;8655;57.106;-2.088;2022-10-31T09:03:47;7.17;;;2.43;;
17079;SDS011;8655;57.106;-2.088;2022-10-31T09:06:13;7.27;;;2.30;;
17079;SDS011;8655;57.106;-2.088;2022-10-31T09:08:38;8.07;;;2.40;;
17079;SDS011;8655;57.106;-2.088;2022-10-31T09:11:04;7.90;;;2.27;;
17079;SDS011;8655;57.106;-2.088;2022-10-31T09:13:31;6.70;;;2.30;;
17079;SDS011;8655;57.106;-2.088;2022-10-31T09:15:57;8.73;;;2.50;;
17079;SDS011;8655;57.106;-2.088;2022-10-31T09:18:23;7.33;;;2.33;;
17079;SDS011;8655;57.106;-2.088;2022-10-31T09:20:49;8.07;;;2.50;;
17079;SDS011;8655;57.106;-2.088;2022-10-31T09:23:16;8.07;;;2.60;;
17079;SDS011;8655;57.106;-2.088;2022-10-31T09:25:46;9.13;;;2.90;;
17079;SDS011;8655;57.106;-2.088;2022-10-31T09:28:14;8.57;;;2.20;;
17079;SDS011;8655;57.106;-2.088;2022-10-31T09:30:41;9.30;;;2.63;;
17079;SDS011;8655;57.106;-2.088;2022-10-31T09:33:09;11.17;;;3.07;;
17079;SDS011;8655;57.106;-2.088;2022-10-31T09:35:36;10.20;;;3.00;;
17079;SDS011;8655;57.106;-2.088;2022-10-31T09:38:05;14.25;;;3.35;;
17079;SDS011;8655;57.106;-2.088;2022-10-31T09:51:39;11.23;;;2.70;;
17079;SDS011;8655;57.106;-2.088;2022-10-31T09:54:13;9.57;;;3.00;;
17079;SDS011;8655;57.106;-2.088;2022-10-31T09:56:44;9.03;;;2.90;;
17079;SDS011;8655;57.106;-2.088;2022-10-31T09:59:26;11.40;;;3.00;;
17079;SDS011;8655;57.106;-2.088;2022-10-31T10:01:58;12.13;;;3.00;;
17079;SDS011;8655;57.106;-2.088;2022-10-31T10:04:30;10.30;;;2.80;;
17079;SDS011;8655;57.106;-2.088;2022-10-31T10:09:46;10.53;;;2.90;;
17079;SDS011;8655;57.106;-2.088;2022-10-31T10:17:42;8.47;;;2.27;;
17079;SDS011;8655;57.106;-2.088;2022-10-31T10:20:31;10.73;;;2.80;;
17079;SDS011;8655;57.106;-2.088;2022-10-31T10:23:29;8.35;;;2.58;;
17079;SDS011;8655;57.106;-2.088;2022-10-31T10:26:07;11.03;;;3.17;;
17079;SDS011;8655;57.106;-2.088;2022-10-31T10:28:45;9.27;;;2.77;;
17079;SDS011;8655;57.106;-2.088;2022-10-31T10:31:18;10.03;;;3.63;;
17079;SDS011;8655;57.106;-2.088;2022-10-31T10:36:52;9.60;;;3.07;;
17079;SDS011;8655;57.106;-2.088;2022-10-31T10:39:27;11.40;;;2.87;;
17079;SDS011;8655;57.106;-2.088;2022-10-31T10:41:58;11.87;;;3.50;;
17079;SDS011;8655;57.106;-2.088;2022-10-31T10:44:44;9.27;;;2.70;;
17079;SDS011;8655;57.106;-2.088;2022-10-31T10:47:33;9.00;;;2.67;;
17079;SDS011;8655;57.106;-2.088;2022-10-31T10:50:18;10.07;;;3.00;;
17079;SDS011;8655;57.106;-2.088;2022-10-31T10:58:03;9.97;;;3.10;;
17079;SDS011;8655;57.106;-2.088;2022-10-31T11:00:36;12.03;;;3.50;;
17079;SDS011;8655;57.106;-2.088;2022-10-31T11:03:05;12.67;;;3.20;;
17079;SDS011;8655;57.106;-2.088;2022-10-31T11:08:06;10.90;;;3.20;;
17079;SDS011;8655;57.106;-2.088;2022-10-31T11:10:33;12.03;;;3.10;;
17079;SDS011;8655;57.106;-2.088;2022-10-31T11:15:55;11.80;;;3.30;;
17079;SDS011;8655;57.106;-2.088;2022-10-31T11:18:22;12.10;;;3.50;;
17079;SDS011;8655;57.106;-2.088;2022-10-31T11:20:52;11.60;;;3.03;;
17079;SDS011;8655;57.106;-2.088;2022-10-31T11:23:21;10.53;;;2.70;;
17079;SDS011;8655;57.106;-2.088;2022-10-31T11:25:55;11.13;;;2.77;;
17079;SDS011;8655;57.106;-2.088;2022-10-31T11:28:21;9.57;;;2.93;;
17079;SDS011;8655;57.106;-2.088;2022-10-31T11:30:54;10.37;;;2.83;;
17079;SDS011;8655;57.106;-2.088;2022-10-31T11:33:24;12.13;;;3.20;;
17079;SDS011;8655;57.106;-2.088;2022-10-31T11:36:04;11.27;;;3.20;;
17079;SDS011;8655;57.106;-2.088;2022-10-31T11:38:51;12.70;;;3.30;;
17079;SDS011;8655;57.106;-2.088;2022-10-31T11:43:59;9.43;;;3.20;;
17079;SDS011;8655;57.106;-2.088;2022-10-31T11:49:18;11.90;;;3.40;;
17079;SDS011;8655;57.106;-2.088;2022-10-31T11:51:50;11.90;;;3.30;;
17079;SDS011;8655;57.106;-2.088;2022-10-31T11:54:24;12.43;;;2.90;;
17079;SDS011;8655;57.106;-2.088;2022-10-31T11:56:56;12.87;;;3.37;;
17079;SDS011;8655;57.106;-2.088;2022-10-31T12:01:50;10.00;;;3.20;;
17079;SDS011;8655;57.106;-2.088;2022-10-31T12:04:17;8.97;;;2.80;;
17079;SDS011;8655;57.106;-2.088;2022-10-31T12:06:47;10.98;;;3.00;;
17079;SDS011;8655;57.106;-2.088;2022-10-31T12:09:22;9.70;;;3.23;;
17079;SDS011;8655;57.106;-2.088;2022-10-31T12:22:11;10.87;;;3.47;;
17079;SDS011;8655;57.106;-2.088;2022-10-31T12:30:13;12.30;;;3.33;;
17079;SDS011;8655;57.106;-2.088;2022-10-31T12:32:52;8.43;;;3.00;;
17079;SDS011;8655;57.106;-2.088;2022-10-31T12:38:04;14.63;;;3.47;;
17079;SDS011;8655;57.106;-2.088;2022-10-31T12:41:06;11.73;;;3.17;;
17079;SDS011;8655;57.106;-2.088;2022-10-31T12:43:52;11.87;;;3.33;;
17079;SDS011;8655;57.106;-2.088;2022-10-31T12:51:42;15.15;;;3.78;;
17079;SDS011;8655;57.106;-2.088;2022-10-31T12:57:19;9.43;;;3.37;;
17079;SDS011;8655;57.106;-2.088;2022-10-31T13:10:45;12.10;;;3.40;;
17079;SDS011;8655;57.106;-2.088;2022-10-31T13:13:21;11.07;;;3.37;;
17079;SDS011;8655;57.106;-2.088;2022-10-31T13:16:13;14.87;;;3.80;;
17079;SDS011;8655;57.106;-2.088;2022-10-31T13:18:50;13.93;;;3.47;;
17079;SDS011;8655;57.106;-2.088;2022-10-31T13:21:24;9.30;;;3.40;;
17079;SDS011;8655;57.106;-2.088;2022-10-31T13:23:53;11.77;;;3.77;;
17079;SDS011;8655;57.106;-2.088;2022-10-31T13:26:35;9.73;;;3.15;;
17079;SDS011;8655;57.106;-2.088;2022-10-31T13:31:41;13.67;;;3.80;;
17079;SDS011;8655;57.106;-2.088;2022-10-31T13:34:27;11.10;;;3.67;;
17079;SDS011;8655;57.106;-2.088;2022-10-31T13:45:15;12.00;;;3.57;;
17079;SDS011;8655;57.106;-2.088;2022-10-31T13:47:43;13.20;;;3.80;;
17079;SDS011;8655;57.106;-2.088;2022-10-31T13:50:30;11.20;;;3.33;;
17079;SDS011;8655;57.106;-2.088;2022-10-31T13:58:32;10.93;;;3.27;;
17079;SDS011;8655;57.106;-2.088;2022-10-31T14:03:30;12.98;;;3.70;;
17079;SDS011;8655;57.106;-2.088;2022-10-31T14:06:00;15.20;;;3.95;;
17079;SDS011;8655;57.106;-2.088;2022-10-31T14:08:25;13.60;;;4.00;;
17079;SDS011;8655;57.106;-2.088;2022-10-31T14:10:59;12.90;;;4.10;;
17079;SDS011;8655;57.106;-2.088;2022-10-31T14:13:32;13.80;;;3.95;;
17079;SDS011;8655;57.106;-2.088;2022-10-31T14:16:06;14.53;;;4.00;;
17079;SDS011;8655;57.106;-2.088;2022-10-31T14:18:43;10.73;;;3.58;;
17079;SDS011;8655;57.106;-2.088;2022-10-31T14:21:59;14.60;;;4.17;;
17079;SDS011;8655;57.106;-2.088;2022-10-31T14:24:13;10.53;;;3.43;;
17079;SDS011;8655;57.106;-2.088;2022-10-31T14:29:49;12.20;;;3.70;;
17079;SDS011;8655;57.106;-2.088;2022-10-31T14:32:21;11.13;;;3.73;;
17079;SDS011;8655;57.106;-2.088;2022-10-31T14:40:24;15.17;;;3.80;;
17079;SDS011;8655;57.106;-2.088;2022-10-31T14:51:17;13.03;;;3.80;;
17079;SDS011;8655;57.106;-2.088;2022-10-31T14:53:54;18.07;;;4.03;;
17079;SDS011;8655;57.106;-2.088;2022-10-31T14:58:52;13.37;;;4.70;;
17079;SDS011;8655;57.106;-2.088;2022-10-31T15:01:26;12.67;;;4.00;;
17079;SDS011;8655;57.106;-2.088;2022-10-31T15:04:16;13.20;;;3.77;;
17079;SDS011;8655;57.106;-2.088;2022-10-31T15:06:49;14.63;;;3.97;;
17079;SDS011;8655;57.106;-2.088;2022-10-31T15:09:35;10.53;;;3.60;;
17079;SDS011;8655;57.106;-2.088;2022-10-31T15:14:47;12.23;;;3.77;;
17079;SDS011;8655;57.106;-2.088;2022-10-31T15:17:12;11.70;;;3.70;;
17079;SDS011;8655;57.106;-2.088;2022-10-31T15:19:38;12.77;;;3.73;;
17079;SDS011;8655;57.106;-2.088;2022-10-31T15:22:04;14.50;;;3.70;;
17079;SDS011;8655;57.106;-2.088;2022-10-31T15:24:35;12.90;;;3.63;;
17079;SDS011;8655;57.106;-2.088;2022-10-31T15:27:02;13.37;;;4.17;;
17079;SDS011;8655;57.106;-2.088;2022-10-31T15:29:28;13.27;;;4.00;;
17079;SDS011;8655;57.106;-2.088;2022-10-31T15:31:58;15.40;;;4.40;;
17079;SDS011;8655;57.106;-2.088;2022-10-31T15:37:17;14.23;;;4.40;;
17079;SDS011;8655;57.106;-2.088;2022-10-31T15:39:45;11.87;;;4.20;;
17079;SDS011;8655;57.106;-2.088;2022-10-31T15:42:28;10.80;;;3.50;;
17079;SDS011;8655;57.106;-2.088;2022-10-31T15:47:38;12.40;;;4.53;;
17079;SDS011;8655;57.106;-2.088;2022-10-31T15:50:30;12.50;;;3.90;;
17079;SDS011;8655;57.106;-2.088;2022-10-31T15:52:59;14.30;;;3.93;;
17079;SDS011;8655;57.106;-2.088;2022-10-31T15:55:26;14.93;;;4.30;;
17079;SDS011;8655;57.106;-2.088;2022-10-31T15:58:09;12.33;;;3.80;;
17079;SDS011;8655;57.106;-2.088;2022-10-31T16:00:37;13.27;;;3.77;;
17079;SDS011;8655;57.106;-2.088;2022-10-31T16:05:36;13.03;;;3.80;;
17079;SDS011;8655;57.106;-2.088;2022-10-31T16:10:55;15.37;;;3.93;;
17079;SDS011;8655;57.106;-2.088;2022-10-31T16:13:31;13.63;;;4.00;;
17079;SDS011;8655;57.106;-2.088;2022-10-31T16:16:03;12.83;;;4.00;;
17079;SDS011;8655;57.106;-2.088;2022-10-31T16:18:36;13.77;;;4.40;;
17079;SDS011;8655;57.106;-2.088;2022-10-31T16:21:03;13.87;;;3.87;;
17079;SDS011;8655;57.106;-2.088;2022-10-31T16:23:30;15.17;;;4.03;;
17079;SDS011;8655;57.106;-2.088;2022-10-31T16:25:55;11.03;;;3.87;;
17079;SDS011;8655;57.106;-2.088;2022-10-31T16:28:22;15.57;;;4.53;;
17079;SDS011;8655;57.106;-2.088;2022-10-31T16:30:56;14.20;;;4.23;;
17079;SDS011;8655;57.106;-2.088;2022-10-31T16:33:32;13.67;;;3.93;;
17079;SDS011;8655;57.106;-2.088;2022-10-31T16:36:13;13.07;;;4.10;;
17079;SDS011;8655;57.106;-2.088;2022-10-31T16:38:52;12.37;;;3.83;;
17079;SDS011;8655;57.106;-2.088;2022-10-31T16:41:19;13.47;;;3.83;;
17079;SDS011;8655;57.106;-2.088;2022-10-31T16:43:45;11.50;;;3.77;;
17079;SDS011;8655;57.106;-2.088;2022-10-31T16:46:15;12.63;;;4.10;;
17079;SDS011;8655;57.106;-2.088;2022-10-31T16:48:47;16.65;;;4.68;;
17079;SDS011;8655;57.106;-2.088;2022-10-31T16:51:13;14.10;;;3.93;;
17079;SDS011;8655;57.106;-2.088;2022-10-31T16:53:39;15.17;;;4.43;;
17079;SDS011;8655;57.106;-2.088;2022-10-31T16:56:05;11.77;;;4.00;;
17079;SDS011;8655;57.106;-2.088;2022-10-31T16:58:43;14.10;;;4.03;;
17079;SDS011;8655;57.106;-2.088;2022-10-31T17:01:09;12.67;;;3.93;;
17079;SDS011;8655;57.106;-2.088;2022-10-31T17:03:37;13.43;;;4.17;;
17079;SDS011;8655;57.106;-2.088;2022-10-31T17:06:03;13.53;;;4.73;;
17079;SDS011;8655;57.106;-2.088;2022-10-31T17:08:29;14.43;;;4.13;;
17079;SDS011;8655;57.106;-2.088;2022-10-31T17:10:55;13.63;;;4.40;;
17079;SDS011;8655;57.106;-2.088;2022-10-31T17:13:26;12.65;;;4.13;;
17079;SDS011;8655;57.106;-2.088;2022-10-31T17:15:57;13.90;;;3.93;;
17079;SDS011;8655;57.106;-2.088;2022-10-31T17:18:24;12.70;;;4.30;;
17079;SDS011;8655;57.106;-2.088;2022-10-31T17:20:51;12.43;;;3.97;;
17079;SDS011;8655;57.106;-2.088;2022-10-31T17:23:21;11.07;;;3.83;;
17079;SDS011;8655;57.106;-2.088;2022-10-31T17:25:47;13.30;;;4.57;;
17079;SDS011;8655;57.106;-2.088;2022-10-31T17:28:13;12.30;;;3.90;;
17079;SDS011;8655;57.106;-2.088;2022-10-31T17:30:40;9.23;;;3.65;;
17079;SDS011;8655;57.106;-2.088;2022-10-31T17:33:11;11.27;;;3.93;;